Ana Sayfa
METAR-TAF:

METAR-TAF

Havaalanları :

Greeley-Weld County Airport

Greeley, Colorado, Amerika Birleşik Devletleri

Enlem: 40-26N, Boylam: 104-38W, yükseklik: 1420 m

Güncel hava durumu gözlemi

Rapor saat 21:56 UTC de 57 dakika önce yapıldı.
Sakin rüzgar
Sıcaklık 34°C
Nem 25%
Basınç 1019 hPa
Görüş mesafesi: 16.1 km
Açık gökyüzü

METAR: KGXY 032156Z 00000KT 10SM CLR 34/11 A3010 RMK AO2 LTG DSNT SE SLP142 T03390111

Saat: 16:53 (22:53 UTC)


TAF: eksik

4.000'den fazla havaalanı için hava durumu gözlemleri ve tahminleri (METAR ve TAF raporları).

Kullanılabilir istasyonlar harita üzerinde sarı ve kırmızı noktalarla gösterilir.

İstasyonun adını görmek için fareyi noktanın üzerinde gezdirin.

Sonrasında hava gözlem ve tahminlerini görmek için tıklayın.

Haritayı değiştirmek için: yaklaştırmak için siyah artı işaretli yeşil düğmeye ve uzaklaştırmak için de eksi işaretli düğmeye hızla tıklayın; bitişik haritalar için yeşil okları kullanın.


METAR-TAF: